createdAt,value
2018-03-23T22:13:17.635Z,4.10
2018-03-23T22:15:48.163Z,4.10
2018-03-23T22:18:17.558Z,3.90
2018-03-23T22:20:47.687Z,4.20
2018-03-23T22:23:16.915Z,4.00
2018-03-23T22:25:46.251Z,4.20
2018-03-23T22:28:15.708Z,4.30
2018-03-23T22:30:45.193Z,4.30
2018-03-23T22:33:14.441Z,4.30
2018-03-23T22:35:43.979Z,4.20
2018-03-23T22:38:14.302Z,4.00
2018-03-23T22:40:43.891Z,4.00
2018-03-23T22:43:13.400Z,4.00
2018-03-23T22:45:42.860Z,4.10
2018-03-23T22:48:12.363Z,4.20
2018-03-23T22:50:41.663Z,4.30
2018-03-23T22:53:11.216Z,4.30
2018-03-23T22:55:41.234Z,4.40
2018-03-23T22:58:10.483Z,4.40
2018-03-23T23:00:40.062Z,4.40
2018-03-23T23:03:09.699Z,4.40
2018-03-23T23:05:39.178Z,4.40
2018-03-23T23:08:08.303Z,4.50
2018-03-23T23:10:37.857Z,4.20
2018-03-23T23:13:07.171Z,4.30
2018-03-23T23:15:36.440Z,4.50
2018-03-23T23:18:06.160Z,4.50
2018-03-23T23:20:35.354Z,4.50
2018-03-23T23:23:04.858Z,4.60
2018-03-23T23:25:34.185Z,4.60
2018-03-23T23:28:03.497Z,4.50
2018-03-23T23:30:33.737Z,4.20
2018-03-23T23:33:03.359Z,4.20
2018-03-23T23:35:32.782Z,4.20
2018-03-23T23:38:01.996Z,4.20
2018-03-23T23:40:31.643Z,4.20
2018-03-23T23:43:02.185Z,4.30
2018-03-23T23:45:31.722Z,4.30
2018-03-23T23:48:01.066Z,4.40
2018-03-23T23:50:30.260Z,4.50
2018-03-23T23:53:00.530Z,4.30
2018-03-23T23:55:29.716Z,4.30
2018-03-23T23:57:59.104Z,4.30
